Time;durP1;ratioP1;P1;durP2;ratioP2;P2;SDS_P1;SDS_P2;PMS_P1;PMS_P2;Temp;Humidity;BMP_temperature;BMP_pressure;BME280_temperature;BME280_humidity;BME280_pressure;Samples;Min_cycle;Max_cycle;Signal;HPM_P1;HPM_P2
2021/01/17 00:13:09;;;;;;;;;;;-1.10;99.90;;;;;;6181097;22;19919;-85
2021/01/17 00:20:45;;;;;;;;;;;-1.10;99.90;;;;;;5541910;22;19987;-77
2021/01/17 00:36:16;;;;;;;;;;;-1.20;99.90;;;;;;5667543;22;19928;-90
2021/01/17 00:38:42;;;;;;;;;;;-1.20;99.90;;;;;;5251497;22;19929;-89
2021/01/17 00:41:07;;;;;;;;;;;-1.20;99.90;;;;;;5329057;22;20020;-87
2021/01/17 00:43:37;;;;;;;;;;;-1.20;99.90;;;;;;5349762;22;19923;-90
2021/01/17 00:48:30;;;;;;;;;;;-1.10;99.90;;;;;;5319888;22;19933;-78
2021/01/17 00:50:58;;;;;;;;;;;-1.10;99.90;;;;;;5151313;22;19925;-76
2021/01/17 00:53:29;;;;;;;;;;;-1.10;99.90;;;;;;5026144;28;19912;-78
2021/01/17 00:55:54;;;;;;;;;;;-1.10;99.90;;;;;;5134810;22;19893;-88
2021/01/17 00:58:20;;;;;;;;;;;-1.10;99.90;;;;;;5163425;22;20013;-88
2021/01/17 01:03:23;;;;;;;;;;;-1.20;99.90;;;;;;5223624;22;20443;-77
2021/01/17 01:05:48;;;;;;;;;;;-1.20;99.90;;;;;;5074906;28;19991;-78
2021/01/17 01:08:14;;;;;;;;;;;-1.30;99.90;;;;;;5070084;28;21032;-77
2021/01/17 01:10:39;;;;;;;;;;;-1.30;99.90;;;;;;5071969;28;19912;-80
2021/01/17 01:13:05;;;;;;;;;;;-1.30;99.90;;;;;;5070116;28;19961;-77
2021/01/17 01:15:32;;;;;;;;;;;-1.20;99.90;;;;;;5067761;28;19913;-79
2021/01/17 01:17:58;;;;;;;;;;;-1.30;99.90;;;;;;5073493;28;20279;-78
2021/01/17 01:20:24;;;;;;;;;;;-1.30;99.90;;;;;;5074084;28;19913;-78
2021/01/17 01:22:49;;;;;;;;;;;-1.30;99.90;;;;;;5072642;28;19908;-78
2021/01/17 01:25:15;;;;;;;;;;;-1.30;99.90;;;;;;5349476;22;19939;-87
2021/01/17 01:27:47;;;;;;;;;;;-1.30;99.90;;;;;;5058690;28;19914;-89
2021/01/17 01:30:13;;;;;;;;;;;-1.30;99.90;;;;;;5049455;28;19908;-88
2021/01/17 01:32:38;;;;;;;;;;;-1.30;99.90;;;;;;5057386;28;19957;-88
2021/01/17 01:37:35;;;;;;;;;;;-1.30;99.90;;;;;;5032350;28;19936;-77
2021/01/17 01:40:03;;;;;;;;;;;-1.20;99.90;;;;;;5013839;28;19913;-77
2021/01/17 01:42:29;;;;;;;;;;;-1.30;99.90;;;;;;5015085;28;20000;-77
2021/01/17 01:44:54;;;;;;;;;;;-1.30;99.90;;;;;;5033515;28;20423;-77
2021/01/17 01:47:25;;;;;;;;;;;-1.30;99.90;;;;;;5016272;28;20360;-77
2021/01/17 01:49:52;;;;;;;;;;;-1.30;99.90;;;;;;5015960;28;19916;-77
2021/01/17 01:52:17;;;;;;;;;;;-1.30;99.90;;;;;;5015047;28;19913;-77
2021/01/17 01:54:43;;;;;;;;;;;-1.30;99.90;;;;;;5016118;28;19916;-77
2021/01/17 01:57:09;;;;;;;;;;;-1.30;99.90;;;;;;5016157;28;19968;-78
2021/01/17 01:59:34;;;;;;;;;;;-1.30;99.90;;;;;;5015872;28;20322;-77
2021/01/17 02:02:07;;;;;;;;;;;-1.30;99.90;;;;;;5014464;28;20349;-77
2021/01/17 02:04:36;;;;;;;;;;;-1.40;99.90;;;;;;5015686;28;19909;-78
2021/01/17 02:07:20;;;;;;;;;;;-1.30;99.90;;;;;;5016170;28;19909;-77
2021/01/17 02:09:48;;;;;;;;;;;-1.20;99.90;;;;;;5015644;28;20300;-77
2021/01/17 02:12:20;;;;;;;;;;;-1.20;99.90;;;;;;5014621;28;19909;-78
2021/01/17 02:15:15;;;;;;;;;;;-1.20;99.90;;;;;;5015351;28;20265;-77
2021/01/17 02:17:42;;;;;;;;;;;-1.20;99.90;;;;;;4994432;28;20020;-78
2021/01/17 02:20:15;;;;;;;;;;;-1.20;99.90;;;;;;5015110;28;20276;-78
2021/01/17 02:22:50;;;;;;;;;;;-1.20;99.90;;;;;;5015290;28;19917;-78
2021/01/17 02:25:16;;;;;;;;;;;-1.20;99.90;;;;;;5015083;28;19917;-78
2021/01/17 02:27:42;;;;;;;;;;;-1.20;99.90;;;;;;5015503;28;19996;-78
2021/01/17 02:30:09;;;;;;;;;;;-1.20;99.90;;;;;;5151116;22;19924;-87
2021/01/17 02:32:38;;;;;;;;;;;-1.20;99.90;;;;;;5054102;28;19909;-89
2021/01/17 02:35:04;;;;;;;;;;;-1.20;99.90;;;;;;5054243;28;19908;-88
2021/01/17 02:37:34;;;;;;;;;;;-1.20;99.90;;;;;;5041924;28;20386;-89
2021/01/17 02:42:41;;;;;;;;;;;-1.20;99.90;;;;;;5108858;22;19951;-88
2021/01/17 02:45:07;;;;;;;;;;;-1.30;99.90;;;;;;5073859;28;19917;-86
2021/01/17 02:47:32;;;;;;;;;;;-1.30;99.90;;;;;;5072878;28;19916;-87
2021/01/17 02:49:59;;;;;;;;;;;-1.30;99.90;;;;;;5162891;22;19925;-89
2021/01/17 02:52:54;;;;;;;;;;;-1.30;99.90;;;;;;5166061;22;20325;-89
2021/01/17 02:55:22;;;;;;;;;;;-1.30;99.90;;;;;;5035756;28;19909;-87
2021/01/17 02:57:48;;;;;;;;;;;-1.30;99.90;;;;;;5057449;28;19912;-88
2021/01/17 03:00:15;;;;;;;;;;;-1.30;99.90;;;;;;5057352;28;19950;-88
2021/01/17 03:02:47;;;;;;;;;;;-1.30;99.90;;;;;;5057404;28;19958;-88
2021/01/17 03:05:17;;;;;;;;;;;-1.30;99.90;;;;;;5037312;28;20004;-86
2021/01/17 03:07:46;;;;;;;;;;;-1.30;99.90;;;;;;5037334;28;19909;-87
2021/01/17 03:10:14;;;;;;;;;;;-1.40;99.90;;;;;;5055988;28;19912;-86
2021/01/17 03:12:39;;;;;;;;;;;-1.30;99.90;;;;;;5057401;28;20274;-89
2021/01/17 03:15:06;;;;;;;;;;;-1.30;99.90;;;;;;5057063;28;19909;-87
2021/01/17 03:17:32;;;;;;;;;;;-1.30;99.90;;;;;;5057097;28;19944;-88
2021/01/17 03:22:33;;;;;;;;;;;-1.30;99.90;;;;;;5095604;22;20375;-90
2021/01/17 03:24:58;;;;;;;;;;;-1.40;99.90;;;;;;5055426;28;19916;-88
2021/01/17 03:27:24;;;;;;;;;;;-1.30;99.90;;;;;;5055777;28;19909;-89
2021/01/17 03:29:50;;;;;;;;;;;-1.30;99.90;;;;;;5055611;28;19909;-91
2021/01/17 03:32:15;;;;;;;;;;;-1.40;99.90;;;;;;5032833;28;19916;-89
2021/01/17 03:34:42;;;;;;;;;;;-1.40;99.90;;;;;;5036541;28;19908;-88
2021/01/17 03:37:10;;;;;;;;;;;-1.30;99.90;;;;;;5052415;28;19913;-88
2021/01/17 03:39:35;;;;;;;;;;;-1.40;99.90;;;;;;5035720;28;19913;-89
2021/01/17 03:42:01;;;;;;;;;;;-1.40;99.90;;;;;;5036478;28;20322;-90
2021/01/17 03:44:29;;;;;;;;;;;-1.40;99.90;;;;;;5055547;28;19916;-90
2021/01/17 03:46:54;;;;;;;;;;;-1.40;99.90;;;;;;5042246;28;19951;-90
2021/01/17 03:49:20;;;;;;;;;;;-1.40;99.90;;;;;;5054791;28;19909;-89
2021/01/17 03:51:45;;;;;;;;;;;-1.30;99.90;;;;;;5044269;28;19959;-90
2021/01/17 03:54:11;;;;;;;;;;;-1.40;99.90;;;;;;5026704;28;19937;-89
2021/01/17 03:56:36;;;;;;;;;;;-1.30;99.90;;;;;;5043272;28;19910;-90
2021/01/17 03:59:04;;;;;;;;;;;-1.30;99.90;;;;;;5026440;28;19916;-88
2021/01/17 04:01:30;;;;;;;;;;;-1.40;99.90;;;;;;5131834;23;20000;-89
2021/01/17 04:03:58;;;;;;;;;;;-1.40;99.90;;;;;;5262695;22;19948;31
2021/01/17 04:06:29;;;;;;;;;;;-1.40;99.90;;;;;;5166944;22;20028;-77
2021/01/17 04:08:54;;;;;;;;;;;-1.40;99.90;;;;;;5052206;28;20000;-77
2021/01/17 04:11:22;;;;;;;;;;;-1.40;99.90;;;;;;5165171;22;19954;-84
2021/01/17 04:13:48;;;;;;;;;;;-1.40;99.90;;;;;;5055273;28;20337;-84
2021/01/17 04:16:13;;;;;;;;;;;-1.40;99.90;;;;;;5055481;28;19913;-84
2021/01/17 04:18:39;;;;;;;;;;;-1.30;99.90;;;;;;5055500;28;19912;-84
2021/01/17 04:21:07;;;;;;;;;;;-1.30;99.90;;;;;;5055800;28;19913;-84
2021/01/17 04:23:32;;;;;;;;;;;-1.40;99.90;;;;;;5073090;28;19960;-84
2021/01/17 04:25:58;;;;;;;;;;;-1.30;99.90;;;;;;5055656;28;19932;-83
2021/01/17 04:28:26;;;;;;;;;;;-1.30;99.90;;;;;;5054841;28;20377;-83
2021/01/17 04:30:54;;;;;;;;;;;-1.30;99.90;;;;;;5055342;28;19912;-83
2021/01/17 04:33:19;;;;;;;;;;;-1.30;99.90;;;;;;5055240;28;19916;-83
2021/01/17 04:35:50;;;;;;;;;;;-1.40;99.90;;;;;;5167213;22;19919;-77
2021/01/17 04:38:16;;;;;;;;;;;-1.30;99.90;;;;;;5179841;22;20264;-87
2021/01/17 04:40:43;;;;;;;;;;;-1.30;99.90;;;;;;5055347;28;19919;-88
2021/01/17 04:43:09;;;;;;;;;;;-1.40;99.90;;;;;;5167095;22;19931;-76
2021/01/17 04:45:35;;;;;;;;;;;-1.30;99.90;;;;;;5072202;28;20270;-76
2021/01/17 04:48:02;;;;;;;;;;;-1.30;99.90;;;;;;5056544;28;19908;-77
2021/01/17 04:50:29;;;;;;;;;;;-1.30;99.90;;;;;;5057591;28;19913;-76
2021/01/17 04:53:03;;;;;;;;;;;-1.30;99.90;;;;;;5057507;28;19947;-77
2021/01/17 04:55:31;;;;;;;;;;;-1.30;99.90;;;;;;5057712;28;19916;-77
2021/01/17 04:57:56;;;;;;;;;;;-1.20;99.90;;;;;;5057487;28;19999;-77
2021/01/17 05:00:28;;;;;;;;;;;-1.30;99.90;;;;;;5057381;28;20411;-76
2021/01/17 05:03:12;;;;;;;;;;;-1.30;99.90;;;;;;5075027;28;20357;-78
2021/01/17 05:05:51;;;;;;;;;;;-1.20;99.90;;;;;;5170554;22;19924;-86
2021/01/17 05:08:33;;;;;;;;;;;-1.30;99.90;;;;;;5167550;22;20181;-78
2021/01/17 05:10:59;;;;;;;;;;;-1.30;99.90;;;;;;5447191;22;19929;-84
2021/01/17 05:13:31;;;;;;;;;;;-1.30;99.90;;;;;;5054664;28;19923;-84
2021/01/17 05:15:57;;;;;;;;;;;-1.20;99.90;;;;;;5054692;28;19958;-84
2021/01/17 05:18:29;;;;;;;;;;;-1.10;99.90;;;;;;5054479;28;19919;-84
2021/01/17 05:20:58;;;;;;;;;;;-1.10;99.90;;;;;;5165892;22;20333;-78
2021/01/17 05:23:26;;;;;;;;;;;-1.20;99.90;;;;;;5053561;28;19908;-76
2021/01/17 05:25:52;;;;;;;;;;;-1.20;99.90;;;;;;5168468;22;19915;-76
2021/01/17 05:30:54;;;;;;;;;;;-1.20;99.90;;;;;;5924915;22;19974;-87
2021/01/17 05:33:25;;;;;;;;;;;-1.10;99.90;;;;;;5631008;22;20024;-87
2021/01/17 05:35:51;;;;;;;;;;;-1.20;99.90;;;;;;5277268;22;19925;-77
2021/01/17 05:38:18;;;;;;;;;;;-1.10;99.90;;;;;;5036952;28;19919;-78
2021/01/17 05:40:44;;;;;;;;;;;-1.20;99.90;;;;;;5036851;28;20287;-78
2021/01/17 05:43:09;;;;;;;;;;;-1.20;99.90;;;;;;5036633;28;19909;-77
2021/01/17 05:45:35;;;;;;;;;;;-1.20;99.90;;;;;;5036507;28;19909;-78
2021/01/17 05:48:02;;;;;;;;;;;-1.20;99.90;;;;;;5054594;28;19908;-77
2021/01/17 05:50:31;;;;;;;;;;;-1.30;99.90;;;;;;5036640;28;19917;-77
2021/01/17 05:53:04;;;;;;;;;;;-1.30;99.90;;;;;;5036410;28;19909;-77
2021/01/17 05:55:32;;;;;;;;;;;-1.20;99.90;;;;;;5036407;28;19913;-77
2021/01/17 05:58:19;;;;;;;;;;;-1.20;99.90;;;;;;5036154;28;19912;-77
2021/01/17 06:00:44;;;;;;;;;;;-1.20;99.90;;;;;;5036201;28;19913;-77
2021/01/17 06:03:10;;;;;;;;;;;-1.30;99.90;;;;;;5036260;28;19932;-78
2021/01/17 06:05:36;;;;;;;;;;;-1.30;99.90;;;;;;5036269;28;19909;-77
2021/01/17 06:08:02;;;;;;;;;;;-1.30;99.90;;;;;;5036494;28;19915;-78
2021/01/17 06:10:28;;;;;;;;;;;-1.30;99.90;;;;;;5036134;28;19908;-78
2021/01/17 06:12:58;;;;;;;;;;;-1.20;99.90;;;;;;5036324;28;20272;-77
2021/01/17 06:15:32;;;;;;;;;;;-1.20;99.90;;;;;;5036194;28;19913;-77
2021/01/17 06:17:58;;;;;;;;;;;-1.20;99.90;;;;;;5053826;28;19912;-78
2021/01/17 06:20:27;;;;;;;;;;;-1.20;99.90;;;;;;5036258;28;19932;-78
2021/01/17 06:22:56;;;;;;;;;;;-1.20;99.90;;;;;;5036057;28;19916;-77
2021/01/17 06:25:26;;;;;;;;;;;-1.20;99.90;;;;;;5035740;28;19909;-77
2021/01/17 06:28:04;;;;;;;;;;;-1.20;99.90;;;;;;5053766;28;20009;-77
2021/01/17 06:30:31;;;;;;;;;;;-1.20;99.90;;;;;;5151026;22;19924;-86
2021/01/17 06:33:00;;;;;;;;;;;-1.10;99.90;;;;;;5153263;22;19971;-86
2021/01/17 06:35:29;;;;;;;;;;;-1.20;99.90;;;;;;5073170;28;20007;-85
2021/01/17 06:37:55;;;;;;;;;;;-1.20;99.90;;;;;;5073514;28;19928;-85
2021/01/17 06:40:29;;;;;;;;;;;-1.20;99.90;;;;;;5073245;28;19908;-86
2021/01/17 06:42:55;;;;;;;;;;;-1.20;99.90;;;;;;5073365;28;19920;-85
2021/01/17 06:45:20;;;;;;;;;;;-1.20;99.90;;;;;;5165333;22;19925;-78
2021/01/17 06:47:53;;;;;;;;;;;-1.20;99.90;;;;;;5035320;28;19920;-77
2021/01/17 06:52:54;;;;;;;;;;;-1.10;99.90;;;;;;5564306;22;19924;-76
2021/01/17 06:55:20;;;;;;;;;;;-1.10;99.90;;;;;;5071848;28;19913;-76
2021/01/17 07:00:18;;;;;;;;;;;-1.20;99.90;;;;;;5297904;22;19913;-79
2021/01/17 07:02:51;;;;;;;;;;;-1.10;99.90;;;;;;5161831;22;19978;-77
2021/01/17 07:05:17;;;;;;;;;;;-1.10;99.90;;;;;;5149783;22;19925;-77
2021/01/17 07:08:11;;;;;;;;;;;-1.10;99.90;;;;;;5433492;22;20737;-76
2021/01/17 07:10:39;;;;;;;;;;;-1.10;99.90;;;;;;5137533;23;19925;-78
2021/01/17 07:13:08;;;;;;;;;;;-1.20;99.90;;;;;;5034723;28;20012;-77
2021/01/17 07:15:37;;;;;;;;;;;-1.20;99.90;;;;;;5162205;22;19928;-77
2021/01/17 07:18:07;;;;;;;;;;;-1.10;99.90;;;;;;5054921;28;19912;-77
2021/01/17 07:20:34;;;;;;;;;;;-1.10;99.90;;;;;;5616678;22;19928;-86
2021/01/17 07:23:00;;;;;;;;;;;-1.10;99.90;;;;;;5015875;28;20284;-86
2021/01/17 07:25:26;;;;;;;;;;;-1.10;99.90;;;;;;5132621;22;20009;-87
2021/01/17 07:27:52;;;;;;;;;;;-1.10;99.90;;;;;;5277953;22;20690;-78
2021/01/17 07:30:23;;;;;;;;;;;-1.20;99.90;;;;;;5034875;28;19994;-76
2021/01/17 07:32:55;;;;;;;;;;;-1.10;99.90;;;;;;5034694;28;19909;-76
2021/01/17 07:35:26;;;;;;;;;;;-1.10;99.90;;;;;;5052625;28;20003;-79
2021/01/17 07:37:56;;;;;;;;;;;-1.20;99.90;;;;;;5034471;28;19912;-78
2021/01/17 07:45:37;;;;;;;;;;;-1.10;99.90;;;;;;5132751;22;19924;-87
2021/01/17 07:48:05;;;;;;;;;;;-1.00;99.90;;;;;;5267083;22;19908;-85
2021/01/17 07:50:37;;;;;;;;;;;-1.10;99.90;;;;;;5028639;28;19917;-85
2021/01/17 07:53:04;;;;;;;;;;;-1.00;99.90;;;;;;5143719;22;20284;-78
2021/01/17 07:55:29;;;;;;;;;;;-1.00;99.90;;;;;;5557287;22;19976;-88
2021/01/17 07:57:55;;;;;;;;;;;-1.00;99.90;;;;;;5272521;22;19979;-86
2021/01/17 08:02:56;;;;;;;;;;;-1.00;99.90;;;;;;5717968;22;20274;-87
2021/01/17 08:05:40;;;;;;;;;;;-1.00;99.90;;;;;;5161605;22;19947;-87
2021/01/17 08:08:26;;;;;;;;;;;-0.90;99.90;;;;;;5328694;23;20097;-88
2021/01/17 08:10:51;;;;;;;;;;;-0.90;99.90;;;;;;5511073;22;19925;-83
2021/01/17 08:13:18;;;;;;;;;;;-0.90;99.90;;;;;;5023974;28;19940;-83
2021/01/17 08:15:45;;;;;;;;;;;-0.90;99.90;;;;;;5032563;28;19956;-83
2021/01/17 08:18:33;;;;;;;;;;;-0.90;99.90;;;;;;5034908;28;19913;-83
2021/01/17 08:21:20;;;;;;;;;;;-0.90;99.90;;;;;;5159059;22;19971;-86
2021/01/17 08:24:21;;;;;;;;;;;-0.80;99.90;;;;;;5046130;28;19920;-87
2021/01/17 08:26:56;;;;;;;;;;;-0.80;99.90;;;;;;4967023;28;19966;-86
2021/01/17 08:29:22;;;;;;;;;;;-0.80;99.90;;;;;;5032277;28;19909;-86
2021/01/17 08:31:48;;;;;;;;;;;-0.80;99.90;;;;;;5052759;28;19916;-86
2021/01/17 08:34:23;;;;;;;;;;;-0.70;99.90;;;;;;5055460;28;19948;-86
2021/01/17 08:36:49;;;;;;;;;;;-0.70;99.90;;;;;;5055743;28;19909;-85
2021/01/17 08:42:43;;;;;;;;;;;-0.70;99.90;;;;;;4699976;22;20397;-76
2021/01/17 08:45:21;;;;;;;;;;;-0.50;99.90;;;;;;5062185;28;20291;-78
2021/01/17 08:48:09;;;;;;;;;;;-0.50;99.90;;;;;;5174849;22;19925;-85
2021/01/17 08:50:36;;;;;;;;;;;-0.50;99.90;;;;;;5064319;28;20366;-88
2021/01/17 08:53:20;;;;;;;;;;;-0.40;99.90;;;;;;5075139;28;19916;-87
2021/01/17 08:55:47;;;;;;;;;;;-0.40;99.90;;;;;;5075228;28;19908;-87
2021/01/17 08:58:16;;;;;;;;;;;-0.40;99.90;;;;;;5059002;28;19917;-87
2021/01/17 09:03:25;;;;;;;;;;;-0.40;99.90;;;;;;5225537;22;20374;-86
2021/01/17 09:05:51;;;;;;;;;;;-0.30;99.90;;;;;;5056857;28;19908;-87
2021/01/17 09:08:17;;;;;;;;;;;-0.30;99.90;;;;;;5056260;28;19967;-86
2021/01/17 09:10:48;;;;;;;;;;;-0.30;99.90;;;;;;5057227;28;19909;-86
2021/01/17 09:13:26;;;;;;;;;;;-0.30;99.90;;;;;;5057210;28;19909;-86
2021/01/17 09:16:07;;;;;;;;;;;-0.30;99.90;;;;;;5056616;28;19920;-86
2021/01/17 09:18:37;;;;;;;;;;;-0.20;99.90;;;;;;5057416;28;20359;-88
2021/01/17 09:21:04;;;;;;;;;;;-0.20;99.90;;;;;;5058107;28;20362;-87
2021/01/17 09:23:35;;;;;;;;;;;-0.20;99.90;;;;;;5057990;28;20351;-86
2021/01/17 09:26:01;;;;;;;;;;;-0.20;99.90;;;;;;5186333;22;19934;-84
2021/01/17 09:28:27;;;;;;;;;;;-0.10;99.90;;;;;;5158452;22;19933;-78
2021/01/17 09:30:56;;;;;;;;;;;-0.10;99.90;;;;;;5036975;28;19921;-79
2021/01/17 09:33:24;;;;;;;;;;;-0.10;99.90;;;;;;5035885;28;19912;-77
2021/01/17 09:35:50;;;;;;;;;;;0.00;99.90;;;;;;5486875;22;20052;-86
2021/01/17 09:38:20;;;;;;;;;;;-0.10;99.90;;;;;;5037606;28;19919;-85
2021/01/17 09:40:47;;;;;;;;;;;0.00;99.90;;;;;;5036826;28;19982;-85
2021/01/17 09:43:13;;;;;;;;;;;0.00;99.90;;;;;;5389807;22;19908;-87
2021/01/17 09:45:41;;;;;;;;;;;0.00;99.90;;;;;;5159284;22;19932;-88
2021/01/17 09:48:09;;;;;;;;;;;0.00;99.90;;;;;;5046754;28;20481;-85
2021/01/17 09:50:35;;;;;;;;;;;0.10;99.90;;;;;;5036650;28;19912;-85
2021/01/17 09:53:05;;;;;;;;;;;0.10;99.90;;;;;;5173602;22;20055;-87
2021/01/17 09:55:30;;;;;;;;;;;0.10;99.90;;;;;;5069626;28;19928;-87
2021/01/17 09:57:59;;;;;;;;;;;0.20;99.90;;;;;;5072612;28;20274;-86
2021/01/17 10:00:24;;;;;;;;;;;0.20;99.90;;;;;;5065662;28;19962;-86
2021/01/17 10:02:50;;;;;;;;;;;0.10;99.90;;;;;;5184577;22;20022;-77
2021/01/17 10:05:25;;;;;;;;;;;0.10;99.90;;;;;;5252026;22;19944;-84
2021/01/17 10:07:57;;;;;;;;;;;0.30;99.90;;;;;;5032018;28;19920;-85
2021/01/17 10:10:25;;;;;;;;;;;0.30;99.90;;;;;;5032929;28;19913;-85
2021/01/17 10:12:51;;;;;;;;;;;0.30;99.90;;;;;;5038162;28;19995;-84
2021/01/17 10:15:21;;;;;;;;;;;0.30;99.90;;;;;;5035880;28;19997;-84
2021/01/17 10:17:50;;;;;;;;;;;0.40;99.90;;;;;;5030233;28;19924;-86
2021/01/17 10:20:35;;;;;;;;;;;0.40;99.90;;;;;;5026122;28;19909;-85
2021/01/17 10:23:01;;;;;;;;;;;0.50;99.90;;;;;;5041985;28;19909;-85
2021/01/17 10:25:27;;;;;;;;;;;0.50;99.90;;;;;;5029803;28;20435;-84
2021/01/17 10:28:01;;;;;;;;;;;0.60;99.90;;;;;;5031765;28;19913;-84
2021/01/17 10:30:30;;;;;;;;;;;0.60;99.90;;;;;;5028642;28;19959;-84
2021/01/17 10:33:01;;;;;;;;;;;0.60;99.90;;;;;;5030074;28;19913;-85
2021/01/17 10:35:30;;;;;;;;;;;0.60;99.90;;;;;;5033725;28;20356;-84
2021/01/17 10:37:58;;;;;;;;;;;0.60;99.90;;;;;;5035010;28;20027;-87
2021/01/17 10:40:24;;;;;;;;;;;0.60;99.90;;;;;;5037555;28;19923;-85
2021/01/17 10:42:53;;;;;;;;;;;0.70;99.90;;;;;;5045259;28;19914;-85
2021/01/17 10:45:22;;;;;;;;;;;0.70;99.90;;;;;;5049014;28;19913;-84
2021/01/17 10:48:13;;;;;;;;;;;0.70;99.90;;;;;;5035641;28;20356;-84
2021/01/17 10:50:56;;;;;;;;;;;0.80;99.90;;;;;;5052135;28;19959;-85
2021/01/17 10:53:29;;;;;;;;;;;0.80;99.90;;;;;;5166491;22;19967;-85
2021/01/17 10:55:55;;;;;;;;;;;0.80;99.90;;;;;;5028282;28;20012;-85
2021/01/17 10:58:25;;;;;;;;;;;0.80;99.90;;;;;;5029217;28;20271;-86
2021/01/17 11:00:54;;;;;;;;;;;0.80;99.90;;;;;;5026341;28;19987;-85
2021/01/17 11:03:35;;;;;;;;;;;0.80;99.90;;;;;;5027361;28;20276;-86
2021/01/17 11:06:05;;;;;;;;;;;0.80;99.90;;;;;;5031500;28;20430;-85
2021/01/17 11:08:33;;;;;;;;;;;0.80;99.90;;;;;;5028168;28;19909;-85
2021/01/17 11:11:03;;;;;;;;;;;0.80;99.90;;;;;;5029417;28;19913;-85
2021/01/17 11:13:29;;;;;;;;;;;0.90;99.90;;;;;;5026820;28;19916;-85
2021/01/17 11:15:54;;;;;;;;;;;0.90;99.90;;;;;;5147454;23;19951;-87
2021/01/17 11:18:21;;;;;;;;;;;0.90;99.90;;;;;;5041112;28;19940;-86
2021/01/17 11:20:47;;;;;;;;;;;0.90;99.90;;;;;;5043416;28;19917;-84
2021/01/17 11:23:12;;;;;;;;;;;0.90;99.90;;;;;;5258352;22;19934;-86
2021/01/17 11:25:38;;;;;;;;;;;0.90;99.90;;;;;;5133973;22;19925;-87
2021/01/17 11:28:13;;;;;;;;;;;0.90;99.90;;;;;;5016248;28;20323;-87
2021/01/17 11:30:39;;;;;;;;;;;0.90;99.90;;;;;;5007146;28;19913;-86
2021/01/17 11:33:11;;;;;;;;;;;0.90;99.90;;;;;;5016010;28;19956;-86
2021/01/17 11:35:37;;;;;;;;;;;0.80;99.90;;;;;;5015355;28;20004;-86
2021/01/17 11:38:03;;;;;;;;;;;0.80;99.90;;;;;;5015959;28;20260;-86
2021/01/17 11:40:29;;;;;;;;;;;0.90;99.90;;;;;;5015934;28;19909;-85
2021/01/17 11:43:07;;;;;;;;;;;0.80;99.90;;;;;;5015741;28;19963;-86
2021/01/17 11:45:39;;;;;;;;;;;0.90;99.90;;;;;;5015427;28;19909;-86
2021/01/17 11:48:05;;;;;;;;;;;0.80;99.90;;;;;;5015575;28;19976;-86
2021/01/17 11:50:31;;;;;;;;;;;0.80;99.90;;;;;;5011189;28;20360;-85
2021/01/17 11:53:03;;;;;;;;;;;0.90;99.90;;;;;;5015776;28;20294;-87
2021/01/17 11:55:29;;;;;;;;;;;0.80;99.90;;;;;;5015770;28;20004;-86
2021/01/17 11:58:13;;;;;;;;;;;0.80;99.90;;;;;;5035706;28;19917;-86
2021/01/17 12:00:57;;;;;;;;;;;0.80;99.90;;;;;;5019209;28;19932;-85
2021/01/17 12:03:36;;;;;;;;;;;0.80;99.90;;;;;;5019905;28;19931;-86
2021/01/17 12:06:06;;;;;;;;;;;0.80;99.90;;;;;;5135180;23;21097;-86
2021/01/17 12:08:53;;;;;;;;;;;0.80;99.90;;;;;;5287355;22;20321;-84
2021/01/17 12:13:51;;;;;;;;;;;0.90;99.90;;;;;;5043323;28;20311;-84
2021/01/17 12:16:28;;;;;;;;;;;0.80;99.90;;;;;;5056466;28;19914;-85
2021/01/17 12:18:53;;;;;;;;;;;0.80;99.90;;;;;;5059441;28;19916;-85
2021/01/17 12:23:55;;;;;;;;;;;0.70;99.90;;;;;;5120477;22;19974;-86
2021/01/17 12:26:22;;;;;;;;;;;0.70;99.90;;;;;;5078704;28;20255;-86
2021/01/17 12:28:48;;;;;;;;;;;0.80;99.90;;;;;;5079141;28;19914;-86
2021/01/17 12:31:16;;;;;;;;;;;0.80;99.90;;;;;;5078564;28;20378;-85
2021/01/17 12:33:45;;;;;;;;;;;0.80;99.90;;;;;;5070767;28;20355;-85
2021/01/17 12:36:11;;;;;;;;;;;0.80;99.90;;;;;;5073373;28;19961;-85
2021/01/17 12:38:37;;;;;;;;;;;0.70;99.90;;;;;;5072284;28;20497;-85
2021/01/17 12:41:07;;;;;;;;;;;0.70;99.90;;;;;;5045919;28;19995;-85
2021/01/17 12:43:35;;;;;;;;;;;0.70;99.90;;;;;;5055322;28;19908;-87
2021/01/17 12:46:01;;;;;;;;;;;0.80;99.90;;;;;;5049633;28;20359;-87
2021/01/17 12:48:29;;;;;;;;;;;0.80;99.90;;;;;;5062120;28;19919;-85
2021/01/17 12:50:54;;;;;;;;;;;0.80;99.90;;;;;;5078396;28;19911;-85
2021/01/17 12:53:22;;;;;;;;;;;0.80;99.90;;;;;;5078621;28;19961;-85
2021/01/17 12:55:48;;;;;;;;;;;0.80;99.90;;;;;;5050219;28;19908;-85
2021/01/17 12:58:16;;;;;;;;;;;0.80;99.90;;;;;;5078519;28;20015;-84
2021/01/17 13:00:42;;;;;;;;;;;0.80;99.90;;;;;;5078256;28;20318;-85
2021/01/17 13:03:10;;;;;;;;;;;0.80;99.90;;;;;;5078417;28;19961;-85
2021/01/17 13:08:13;;;;;;;;;;;0.80;99.90;;;;;;5280071;22;20914;-86
2021/01/17 13:10:39;;;;;;;;;;;0.80;99.90;;;;;;5017559;28;19917;-86
2021/01/17 13:13:06;;;;;;;;;;;0.80;99.90;;;;;;5042265;28;20298;-86
2021/01/17 13:15:35;;;;;;;;;;;0.80;99.90;;;;;;5037863;28;19908;-86
2021/01/17 13:18:03;;;;;;;;;;;0.80;99.90;;;;;;5024432;28;19917;-86
2021/01/17 13:20:31;;;;;;;;;;;0.90;99.90;;;;;;5027123;28;19909;-88
2021/01/17 13:22:57;;;;;;;;;;;0.80;99.90;;;;;;5018626;28;19910;-86
2021/01/17 13:25:26;;;;;;;;;;;0.80;99.90;;;;;;5018560;28;19909;-86
2021/01/17 13:27:52;;;;;;;;;;;0.90;99.90;;;;;;5018203;28;19909;-86
2021/01/17 13:30:18;;;;;;;;;;;0.90;99.90;;;;;;5018207;28;19920;-86
2021/01/17 13:32:44;;;;;;;;;;;0.90;99.90;;;;;;5018172;28;19909;-86
2021/01/17 13:35:10;;;;;;;;;;;1.00;99.90;;;;;;5024534;28;19909;-86
2021/01/17 13:37:35;;;;;;;;;;;1.00;99.90;;;;;;5025572;28;19917;-86
2021/01/17 13:40:01;;;;;;;;;;;1.00;99.90;;;;;;5035691;28;19909;-86
2021/01/17 13:42:28;;;;;;;;;;;0.90;99.90;;;;;;5017824;28;20342;-86
2021/01/17 13:44:53;;;;;;;;;;;1.00;99.90;;;;;;5017706;28;20291;-86
2021/01/17 13:47:20;;;;;;;;;;;1.00;99.90;;;;;;5018210;28;19920;-85
2021/01/17 13:49:48;;;;;;;;;;;1.00;99.90;;;;;;5017984;28;19909;-83
2021/01/17 13:52:16;;;;;;;;;;;1.00;99.90;;;;;;5017588;28;19913;-83
2021/01/17 13:54:44;;;;;;;;;;;1.00;99.90;;;;;;5041659;28;19944;-83
2021/01/17 13:57:09;;;;;;;;;;;1.00;99.90;;;;;;5015168;28;20029;-83
2021/01/17 13:59:40;;;;;;;;;;;1.00;99.90;;;;;;5039548;28;20012;-84
2021/01/17 14:02:12;;;;;;;;;;;1.00;99.90;;;;;;5034194;28;19913;-84
2021/01/17 14:04:43;;;;;;;;;;;1.00;99.90;;;;;;5028627;28;20319;-83
2021/01/17 14:07:09;;;;;;;;;;;1.00;99.90;;;;;;5017127;28;19909;-84
2021/01/17 14:09:35;;;;;;;;;;;1.00;99.90;;;;;;5028449;28;19979;-84
2021/01/17 14:12:05;;;;;;;;;;;1.00;99.90;;;;;;5018163;28;20328;-84
2021/01/17 14:14:32;;;;;;;;;;;1.00;99.90;;;;;;5017293;28;19936;-84
2021/01/17 14:16:58;;;;;;;;;;;1.00;99.90;;;;;;5015422;28;19911;-84
2021/01/17 14:19:24;;;;;;;;;;;1.00;99.90;;;;;;5017747;28;19987;-84
2021/01/17 14:21:49;;;;;;;;;;;1.00;99.90;;;;;;5016839;28;20265;-83
2021/01/17 14:24:15;;;;;;;;;;;1.00;99.90;;;;;;5016770;28;19913;-83
2021/01/17 14:26:40;;;;;;;;;;;1.00;99.90;;;;;;5020078;28;19913;-83
2021/01/17 14:29:10;;;;;;;;;;;1.00;99.90;;;;;;5014508;28;20386;-84
2021/01/17 14:31:36;;;;;;;;;;;0.90;99.90;;;;;;5034559;28;19955;-83
2021/01/17 14:34:04;;;;;;;;;;;0.90;99.90;;;;;;5015438;28;20456;-83
2021/01/17 14:36:49;;;;;;;;;;;0.90;99.90;;;;;;5016569;28;19913;-83
2021/01/17 14:39:20;;;;;;;;;;;0.90;99.90;;;;;;5143224;22;19925;-85
2021/01/17 14:41:46;;;;;;;;;;;0.90;99.90;;;;;;5071891;28;19927;-85
2021/01/17 14:44:14;;;;;;;;;;;0.90;99.90;;;;;;5072235;28;19908;-84
2021/01/17 14:46:40;;;;;;;;;;;0.80;99.90;;;;;;5071803;28;19920;-85
2021/01/17 14:49:12;;;;;;;;;;;0.90;99.90;;;;;;5072273;28;19930;-84
2021/01/17 14:51:37;;;;;;;;;;;0.90;99.90;;;;;;5071175;28;19908;-85
2021/01/17 14:54:03;;;;;;;;;;;0.90;99.90;;;;;;5072139;28;20061;-85
2021/01/17 14:56:37;;;;;;;;;;;0.90;99.90;;;;;;5071786;28;19916;-85
2021/01/17 14:59:06;;;;;;;;;;;0.90;99.90;;;;;;5072364;28;20027;-84
2021/01/17 15:01:34;;;;;;;;;;;0.80;99.90;;;;;;5071609;28;19908;-85
2021/01/17 15:03:59;;;;;;;;;;;0.80;99.90;;;;;;5071909;28;19912;-85
2021/01/17 15:06:25;;;;;;;;;;;0.80;99.90;;;;;;5071503;28;19954;-85
2021/01/17 15:08:51;;;;;;;;;;;0.80;99.90;;;;;;5072202;28;19916;-85
2021/01/17 15:11:17;;;;;;;;;;;0.80;99.90;;;;;;5071565;28;20360;-84
2021/01/17 15:13:44;;;;;;;;;;;0.80;99.90;;;;;;5073059;28;19908;-85
2021/01/17 15:16:10;;;;;;;;;;;0.80;99.90;;;;;;5071356;28;20087;-85
2021/01/17 15:18:35;;;;;;;;;;;0.80;99.90;;;;;;5071205;28;19944;-87
2021/01/17 15:23:43;;;;;;;;;;;0.80;99.90;;;;;;5120291;22;20023;-84
2021/01/17 15:26:08;;;;;;;;;;;0.70;99.90;;;;;;5072366;28;20316;-84
2021/01/17 15:28:34;;;;;;;;;;;0.70;99.90;;;;;;5067876;28;19920;-84
2021/01/17 15:31:00;;;;;;;;;;;0.70;99.90;;;;;;5084671;28;19912;-86
2021/01/17 15:33:26;;;;;;;;;;;0.70;99.90;;;;;;5069110;28;19912;-85
2021/01/17 15:35:51;;;;;;;;;;;0.70;99.90;;;;;;5067679;28;19908;-85
2021/01/17 15:38:19;;;;;;;;;;;0.70;99.90;;;;;;5066924;28;19922;-84
2021/01/17 15:40:48;;;;;;;;;;;0.70;99.90;;;;;;5071755;28;19920;-84
2021/01/17 15:43:18;;;;;;;;;;;0.70;99.90;;;;;;5145791;22;20012;-76
2021/01/17 15:45:44;;;;;;;;;;;0.70;99.90;;;;;;5052230;28;19913;-76
2021/01/17 15:48:09;;;;;;;;;;;0.70;99.90;;;;;;5034728;28;19924;-77